createdAt,value
2022-09-27T00:01:19.773Z,62.72
2022-09-27T00:03:46.059Z,67.85
2022-09-27T00:06:12.361Z,73.85
2022-09-27T00:08:38.617Z,76.63
2022-09-27T00:11:04.871Z,80.45
2022-09-27T00:13:31.123Z,85.35
2022-09-27T00:15:57.411Z,80.05
2022-09-27T00:18:23.724Z,76.72
2022-09-27T00:20:49.975Z,73.28
2022-09-27T00:23:16.232Z,67.13
2022-09-27T00:25:42.488Z,62.35
2022-09-27T00:28:08.794Z,57.17
2022-09-27T00:30:35.112Z,61.30
2022-09-27T00:33:01.426Z,67.60
2022-09-27T00:35:27.674Z,62.40
2022-09-27T00:37:53.959Z,59.00
2022-09-27T00:40:24.093Z,58.92
2022-09-27T00:42:50.586Z,61.97
2022-09-27T00:45:17.841Z,65.60
2022-09-27T00:47:44.165Z,60.17
2022-09-27T00:50:10.818Z,57.35
2022-09-27T00:52:37.221Z,51.90
2022-09-27T00:55:03.482Z,52.70
2022-09-27T00:57:29.757Z,51.28
2022-09-27T00:59:56.006Z,52.60
2022-09-27T01:02:22.411Z,52.55
2022-09-27T01:04:49.667Z,53.30
2022-09-27T01:07:15.924Z,52.63
2022-09-27T01:09:42.177Z,61.72
2022-09-27T01:12:08.530Z,59.80
2022-09-27T01:14:34.778Z,64.35
2022-09-27T01:17:01.657Z,65.07
2022-09-27T01:19:27.916Z,71.50
2022-09-27T01:21:54.200Z,69.00
2022-09-27T01:24:20.822Z,75.32
2022-09-27T01:26:47.079Z,67.80
2022-09-27T01:29:13.405Z,58.65
2022-09-27T01:31:39.703Z,62.67
2022-09-27T01:34:05.950Z,61.45
2022-09-27T01:36:32.347Z,59.17
2022-09-27T01:38:59.809Z,56.50
2022-09-27T01:41:26.056Z,66.20
2022-09-27T01:43:52.319Z,62.83
2022-09-27T01:46:18.587Z,73.75
2022-09-27T01:48:44.858Z,93.47
2022-09-27T01:51:11.102Z,85.40
2022-09-27T01:53:37.404Z,85.70
2022-09-27T01:56:03.654Z,82.82
2022-09-27T01:58:29.967Z,83.88
2022-09-27T02:00:56.455Z,88.93
2022-09-27T02:03:22.730Z,90.63
2022-09-27T02:05:48.989Z,91.85
2022-09-27T02:08:15.268Z,81.80
2022-09-27T02:10:41.530Z,90.88
2022-09-27T02:13:07.802Z,76.38
2022-09-27T02:15:34.091Z,71.82
2022-09-27T02:18:00.371Z,81.28
2022-09-27T02:20:26.616Z,86.50
2022-09-27T02:22:52.870Z,90.65
2022-09-27T02:25:19.122Z,86.20
2022-09-27T02:27:45.428Z,85.47
2022-09-27T02:30:12.300Z,78.45
2022-09-27T02:32:38.547Z,75.63
2022-09-27T02:35:04.802Z,74.25
2022-09-27T02:37:31.066Z,61.60
2022-09-27T02:39:57.322Z,58.65
2022-09-27T02:42:23.570Z,49.00
2022-09-27T02:44:49.826Z,51.28
2022-09-27T02:47:16.071Z,60.40
2022-09-27T02:49:42.460Z,57.38
2022-09-27T02:52:08.715Z,58.38
2022-09-27T02:54:34.966Z,55.88
2022-09-27T02:57:01.216Z,56.08
2022-09-27T02:59:27.474Z,61.03
2022-09-27T03:01:53.751Z,66.38
2022-09-27T03:04:22.614Z,57.75
2022-09-27T03:06:48.879Z,56.20
2022-09-27T03:09:15.206Z,52.90
2022-09-27T03:11:41.590Z,53.28
2022-09-27T03:14:09.260Z,53.78
2022-09-27T03:16:35.821Z,50.15
2022-09-27T03:19:02.116Z,55.70
2022-09-27T03:21:29.154Z,60.53
2022-09-27T03:23:55.406Z,59.90
2022-09-27T03:26:21.682Z,62.22
2022-09-27T03:28:47.939Z,68.72
2022-09-27T03:31:14.761Z,66.80
2022-09-27T03:33:41.094Z,65.90
2022-09-27T03:36:07.348Z,83.88
2022-09-27T03:38:33.601Z,77.63
2022-09-27T03:40:59.901Z,48.22
2022-09-27T03:43:26.158Z,49.53
2022-09-27T03:45:52.461Z,54.58
2022-09-27T03:48:18.773Z,51.63
2022-09-27T03:50:45.026Z,54.63
2022-09-27T03:53:11.283Z,59.03
2022-09-27T03:55:37.531Z,79.80
2022-09-27T03:58:03.791Z,90.70
2022-09-27T04:00:32.563Z,71.85
2022-09-27T04:02:59.540Z,76.93
2022-09-27T04:05:25.833Z,110.47
2022-09-27T04:07:52.083Z,152.75
2022-09-27T04:10:18.332Z,87.97
2022-09-27T04:12:44.594Z,134.32
2022-09-27T04:15:11.131Z,140.93
2022-09-27T04:17:37.405Z,72.53
2022-09-27T04:20:03.969Z,61.17
2022-09-27T04:22:30.218Z,77.53
2022-09-27T04:24:56.491Z,63.28
2022-09-27T04:27:22.737Z,61.35
2022-09-27T04:29:48.986Z,90.93
2022-09-27T04:32:15.229Z,97.28
2022-09-27T04:34:59.968Z,70.28
2022-09-27T04:37:26.222Z,63.63
2022-09-27T04:39:52.530Z,61.83
2022-09-27T04:42:18.898Z,64.55
2022-09-27T04:44:45.159Z,74.90
2022-09-27T04:47:11.415Z,90.80
2022-09-27T04:49:38.762Z,67.05
2022-09-27T04:52:05.988Z,66.65
2022-09-27T04:54:32.247Z,75.50
2022-09-27T04:56:58.495Z,68.05
2022-09-27T04:59:24.744Z,61.92
2022-09-27T05:01:51.061Z,60.67
2022-09-27T05:04:17.385Z,48.88
2022-09-27T05:06:43.656Z,57.25
2022-09-27T05:09:09.930Z,64.38
2022-09-27T05:11:37.962Z,67.10
2022-09-27T05:16:33.338Z,55.72
2022-09-27T05:19:00.575Z,62.70
2022-09-27T05:21:26.831Z,72.97
2022-09-27T05:23:53.987Z,72.38
2022-09-27T05:26:20.759Z,71.43
2022-09-27T05:28:47.266Z,67.00
2022-09-27T05:31:14.358Z,64.13
2022-09-27T05:33:40.669Z,64.73
2022-09-27T05:36:06.979Z,69.32
2022-09-27T05:38:33.232Z,70.43
2022-09-27T05:40:59.594Z,70.65
2022-09-27T05:43:26.132Z,75.18
2022-09-27T05:45:53.002Z,79.60
2022-09-27T05:48:19.370Z,86.60
2022-09-27T05:50:45.712Z,81.15
2022-09-27T05:53:13.142Z,76.82
2022-09-27T05:55:39.430Z,85.88
2022-09-27T05:58:05.680Z,78.88
2022-09-27T06:00:31.959Z,81.32
2022-09-27T06:02:58.880Z,82.63
2022-09-27T06:05:25.258Z,82.38
2022-09-27T06:07:51.494Z,85.15
2022-09-27T06:10:17.847Z,80.82
2022-09-27T06:12:44.187Z,104.97
2022-09-27T06:15:10.444Z,114.70
2022-09-27T06:17:36.766Z,104.28
2022-09-27T06:20:03.019Z,109.15
2022-09-27T06:22:29.272Z,110.75
2022-09-27T06:24:55.577Z,114.63
2022-09-27T06:27:21.849Z,118.13
2022-09-27T06:29:48.148Z,111.68
2022-09-27T06:32:14.414Z,96.47
2022-09-27T06:34:41.671Z,94.45
2022-09-27T06:37:07.911Z,96.75
2022-09-27T06:39:34.911Z,108.03
2022-09-27T06:42:01.296Z,115.95
2022-09-27T06:44:27.548Z,126.00
2022-09-27T06:46:55.135Z,112.72
2022-09-27T06:49:22.603Z,77.38
2022-09-27T06:51:48.876Z,76.53
2022-09-27T06:54:15.148Z,73.85
2022-09-27T06:56:41.398Z,72.18
2022-09-27T06:59:26.390Z,77.53
2022-09-27T07:01:52.834Z,75.40
2022-09-27T07:04:19.399Z,79.75
2022-09-27T07:06:45.683Z,80.22
2022-09-27T07:09:11.957Z,79.53
2022-09-27T07:11:38.249Z,78.50
2022-09-27T07:14:08.122Z,80.15
2022-09-27T07:16:34.865Z,74.53
2022-09-27T07:19:01.185Z,75.80
2022-09-27T07:21:27.583Z,78.20
2022-09-27T07:23:53.850Z,75.22
2022-09-27T07:26:20.368Z,73.20
2022-09-27T07:28:46.625Z,76.55
2022-09-27T07:31:12.950Z,71.50
2022-09-27T07:33:43.166Z,68.88
2022-09-27T07:36:09.825Z,74.43
2022-09-27T07:38:36.254Z,83.28
2022-09-27T07:41:02.517Z,93.57
2022-09-27T07:43:28.790Z,104.75
2022-09-27T07:45:55.119Z,91.43
2022-09-27T07:48:21.423Z,73.78
2022-09-27T07:50:48.198Z,67.03
2022-09-27T07:53:15.002Z,72.15
2022-09-27T07:55:42.297Z,87.13
2022-09-27T07:58:08.862Z,91.25
2022-09-27T08:00:35.123Z,77.85
2022-09-27T08:03:01.399Z,74.30
2022-09-27T08:05:27.661Z,58.00
2022-09-27T08:07:53.992Z,54.38
2022-09-27T08:10:20.826Z,54.35
2022-09-27T08:12:47.095Z,64.63
2022-09-27T08:15:13.389Z,65.80
2022-09-27T08:17:39.640Z,61.35
2022-09-27T08:20:06.394Z,59.45
2022-09-27T08:22:32.668Z,57.83
2022-09-27T08:24:58.942Z,58.17
2022-09-27T08:27:25.271Z,58.10
2022-09-27T08:29:52.181Z,56.35
2022-09-27T08:32:22.989Z,65.28
2022-09-27T08:34:49.878Z,69.70
2022-09-27T08:37:16.186Z,65.35
2022-09-27T08:39:46.864Z,65.28
2022-09-27T08:42:14.157Z,49.33
2022-09-27T08:44:41.027Z,53.55
2022-09-27T08:47:07.294Z,103.85
2022-09-27T08:49:33.830Z,92.70
2022-09-27T08:52:00.408Z,60.22
2022-09-27T08:54:29.416Z,84.55
2022-09-27T08:56:56.892Z,120.18
2022-09-27T08:59:23.156Z,79.97
2022-09-27T09:01:49.424Z,72.75
2022-09-27T09:04:15.768Z,71.43
2022-09-27T09:06:42.089Z,57.78
2022-09-27T09:09:08.330Z,55.33
2022-09-27T09:11:53.486Z,81.15
2022-09-27T09:14:19.990Z,54.90
2022-09-27T09:16:47.269Z,56.08
2022-09-27T09:19:13.613Z,65.78
2022-09-27T09:21:39.901Z,77.90
2022-09-27T09:24:06.154Z,101.93
2022-09-27T09:26:32.414Z,84.47
2022-09-27T09:28:58.704Z,90.93
2022-09-27T09:31:25.226Z,96.22
2022-09-27T09:33:51.604Z,95.07
2022-09-27T09:36:17.863Z,96.60
2022-09-27T09:38:44.135Z,113.53
2022-09-27T09:41:10.384Z,115.35
2022-09-27T09:43:36.639Z,66.55
2022-09-27T09:46:03.009Z,79.13
2022-09-27T09:48:29.334Z,111.63
2022-09-27T09:50:55.591Z,116.32
2022-09-27T09:53:21.844Z,102.07
2022-09-27T09:55:48.896Z,71.30
2022-09-27T09:58:19.664Z,59.97
2022-09-27T10:00:46.294Z,57.72
2022-09-27T10:03:12.619Z,56.90
2022-09-27T10:05:38.895Z,58.08
2022-09-27T10:08:05.147Z,85.13
2022-09-27T10:10:31.400Z,149.60
2022-09-27T10:12:57.651Z,137.68
2022-09-27T10:15:23.932Z,110.22
2022-09-27T10:17:50.511Z,70.75
2022-09-27T10:20:16.783Z,75.60
2022-09-27T10:22:43.052Z,62.55
2022-09-27T10:25:09.378Z,72.68
2022-09-27T10:27:35.644Z,129.07
2022-09-27T10:30:01.935Z,161.88
2022-09-27T10:32:30.744Z,65.47
2022-09-27T10:34:57.001Z,131.32
2022-09-27T10:37:23.271Z,87.50
2022-09-27T10:39:50.783Z,63.80
2022-09-27T10:42:17.029Z,56.70
2022-09-27T10:44:43.282Z,63.15
2022-09-27T10:47:09.786Z,74.57
2022-09-27T10:49:36.052Z,69.57
2022-09-27T10:52:02.480Z,66.63
2022-09-27T10:54:28.738Z,58.65
2022-09-27T10:56:55.832Z,55.65
2022-09-27T10:59:22.384Z,56.37
2022-09-27T11:01:50.189Z,55.40
2022-09-27T11:04:16.707Z,47.03
2022-09-27T11:06:43.104Z,59.88
2022-09-27T11:09:09.369Z,44.38
2022-09-27T11:11:35.687Z,48.10
2022-09-27T11:14:04.357Z,58.05
2022-09-27T11:16:30.716Z,80.25
2022-09-27T11:18:57.367Z,66.10
2022-09-27T11:21:24.617Z,66.57
2022-09-27T11:23:50.806Z,58.07
2022-09-27T11:26:17.241Z,75.40
2022-09-27T11:28:43.496Z,63.28
2022-09-27T11:31:09.825Z,58.83
2022-09-27T11:33:36.205Z,57.83
2022-09-27T11:36:02.460Z,80.82
2022-09-27T11:38:52.335Z,108.53
2022-09-27T11:41:14.954Z,91.20
2022-09-27T11:43:41.205Z,80.10
2022-09-27T11:46:19.274Z,71.80
2022-09-27T11:48:49.322Z,64.10
2022-09-27T11:51:16.047Z,101.03
2022-09-27T11:53:42.421Z,114.38
2022-09-27T11:56:08.707Z,49.90
2022-09-27T11:58:34.984Z,63.35
2022-09-27T12:01:01.553Z,59.10
2022-09-27T12:03:27.849Z,58.58
2022-09-27T12:05:58.166Z,63.55
2022-09-27T12:08:25.080Z,68.80
2022-09-27T12:10:51.340Z,71.68
2022-09-27T12:13:17.625Z,80.70
2022-09-27T12:15:43.919Z,50.00
2022-09-27T12:18:10.370Z,123.03
2022-09-27T12:20:36.748Z,127.95
2022-09-27T12:23:03.009Z,121.18
2022-09-27T12:25:29.931Z,96.15
2022-09-27T12:27:56.183Z,122.78
2022-09-27T12:30:22.439Z,137.35
2022-09-27T12:32:48.768Z,92.47
2022-09-27T12:35:15.033Z,68.30
2022-09-27T12:37:41.291Z,90.82
2022-09-27T12:40:07.552Z,117.90
2022-09-27T12:42:33.801Z,72.22
2022-09-27T12:45:00.061Z,78.07
2022-09-27T12:47:26.320Z,63.75
2022-09-27T12:49:53.463Z,78.95
2022-09-27T12:52:25.186Z,76.40
2022-09-27T12:54:51.476Z,60.17
2022-09-27T12:57:18.397Z,54.00
2022-09-27T12:59:44.665Z,110.93
2022-09-27T13:02:11.045Z,55.97
2022-09-27T13:04:37.779Z,51.70
2022-09-27T13:07:04.960Z,58.40
2022-09-27T13:09:31.156Z,141.17
2022-09-27T13:11:57.816Z,61.17
2022-09-27T13:14:24.088Z,62.58
2022-09-27T13:16:51.375Z,59.42
2022-09-27T13:19:17.688Z,57.88
2022-09-27T13:21:43.940Z,58.00
2022-09-27T13:24:12.864Z,78.65
2022-09-27T13:26:39.144Z,109.60
2022-09-27T13:29:05.407Z,93.00
2022-09-27T13:31:31.676Z,84.50
2022-09-27T13:33:57.935Z,73.35
2022-09-27T13:36:25.122Z,69.78
2022-09-27T13:38:51.367Z,48.28
2022-09-27T13:41:18.193Z,58.63
2022-09-27T13:43:44.819Z,64.87
2022-09-27T13:46:13.474Z,67.47
2022-09-27T13:48:39.777Z,86.65
2022-09-27T13:51:06.219Z,88.20
2022-09-27T13:53:32.473Z,61.65
2022-09-27T13:55:58.733Z,55.03
2022-09-27T13:58:25.224Z,50.00
2022-09-27T14:00:51.598Z,50.25
2022-09-27T14:03:17.902Z,55.78
2022-09-27T14:05:44.160Z,50.55
2022-09-27T14:08:10.482Z,51.22
2022-09-27T14:10:36.782Z,48.25
2022-09-27T14:13:03.052Z,46.97
2022-09-27T14:15:29.339Z,47.35
2022-09-27T14:17:55.621Z,54.75
2022-09-27T14:20:23.720Z,52.42
2022-09-27T14:25:16.176Z,49.90
2022-09-27T14:27:42.441Z,56.05
2022-09-27T14:30:08.696Z,53.28
2022-09-27T14:32:35.123Z,53.80
2022-09-27T14:35:01.440Z,51.70
2022-09-27T14:37:28.811Z,48.50
2022-09-27T14:39:55.099Z,47.40
2022-09-27T14:42:21.649Z,49.35
2022-09-27T14:44:47.931Z,45.00
2022-09-27T14:47:14.185Z,46.60
2022-09-27T14:49:40.444Z,46.67
2022-09-27T14:52:06.696Z,43.95
2022-09-27T14:54:33.008Z,43.45
2022-09-27T14:57:00.184Z,47.17
2022-09-27T14:59:30.704Z,44.67
2022-09-27T15:01:56.956Z,45.50
2022-09-27T15:04:24.431Z,48.00
2022-09-27T15:06:50.824Z,48.40
2022-09-27T15:09:17.278Z,43.00
2022-09-27T15:11:44.385Z,42.35
2022-09-27T15:14:11.391Z,45.20
2022-09-27T15:16:37.665Z,45.47
2022-09-27T15:19:04.033Z,50.15
2022-09-27T15:21:30.996Z,48.80
2022-09-27T15:23:58.749Z,53.38
2022-09-27T15:26:25.023Z,47.65
2022-09-27T15:28:52.203Z,46.92
2022-09-27T15:31:18.467Z,45.70
2022-09-27T15:33:45.833Z,44.95
2022-09-27T15:36:15.525Z,45.60
2022-09-27T15:38:47.255Z,42.58
2022-09-27T15:41:13.620Z,49.50
2022-09-27T15:43:40.073Z,49.17
2022-09-27T15:46:06.922Z,48.65
2022-09-27T15:48:33.404Z,47.03
2022-09-27T15:50:59.881Z,44.22
2022-09-27T15:53:26.252Z,45.25
2022-09-27T15:55:52.505Z,47.08
2022-09-27T15:58:18.786Z,46.10
2022-09-27T16:00:45.096Z,48.05
2022-09-27T16:03:11.394Z,48.17
2022-09-27T16:05:37.648Z,45.00
2022-09-27T16:08:04.270Z,46.28
2022-09-27T16:10:30.623Z,47.65
2022-09-27T16:12:56.882Z,49.08
2022-09-27T16:15:23.134Z,49.90
2022-09-27T16:17:49.429Z,45.78
2022-09-27T16:20:15.667Z,49.85
2022-09-27T16:22:41.952Z,49.03
2022-09-27T16:25:08.209Z,48.08
2022-09-27T16:27:35.015Z,46.75
2022-09-27T16:30:01.274Z,54.25
2022-09-27T16:32:27.690Z,54.45
2022-09-27T16:34:53.986Z,46.60
2022-09-27T16:37:20.378Z,45.75
2022-09-27T16:39:46.618Z,51.38
2022-09-27T16:42:13.614Z,50.28
2022-09-27T16:44:39.917Z,47.85
2022-09-27T16:47:08.952Z,55.30
2022-09-27T16:49:54.147Z,46.63
2022-09-27T16:52:20.439Z,45.10
2022-09-27T16:54:46.683Z,58.67
2022-09-27T16:57:12.943Z,50.65
2022-09-27T16:59:39.196Z,52.70
2022-09-27T17:02:05.849Z,63.88
2022-09-27T17:04:32.325Z,62.47
2022-09-27T17:06:58.594Z,65.32
2022-09-27T17:09:24.850Z,77.95
2022-09-27T17:11:51.109Z,98.60
2022-09-27T17:14:18.058Z,98.20
2022-09-27T17:16:44.549Z,64.68
2022-09-27T17:19:10.802Z,67.85
2022-09-27T17:21:38.158Z,74.43
2022-09-27T17:24:04.961Z,54.35
2022-09-27T17:26:31.897Z,60.00
2022-09-27T17:28:58.136Z,57.60
2022-09-27T17:31:25.310Z,46.95
2022-09-27T17:33:56.786Z,69.25
2022-09-27T17:36:24.183Z,65.63
2022-09-27T17:38:50.440Z,56.42
2022-09-27T17:41:16.700Z,49.22
2022-09-27T17:43:50.149Z,49.50
2022-09-27T17:46:16.636Z,54.83
2022-09-27T17:49:01.684Z,57.20
2022-09-27T17:51:29.268Z,55.80
2022-09-27T17:53:55.502Z,67.00
2022-09-27T17:56:22.860Z,69.15
2022-09-27T17:58:49.064Z,69.60
2022-09-27T18:01:15.344Z,100.07
2022-09-27T18:03:41.593Z,113.70
2022-09-27T18:06:07.848Z,88.90
2022-09-27T18:08:34.095Z,68.35
2022-09-27T18:11:01.358Z,81.30
2022-09-27T18:13:29.410Z,52.78
2022-09-27T18:15:57.577Z,46.92
2022-09-27T18:18:23.870Z,50.15
2022-09-27T18:20:50.128Z,62.17
2022-09-27T18:23:16.374Z,55.22
2022-09-27T18:25:43.035Z,60.75
2022-09-27T18:28:09.457Z,64.75
2022-09-27T18:30:35.700Z,65.90
2022-09-27T18:33:01.950Z,107.75
2022-09-27T18:35:28.954Z,123.72
2022-09-27T18:37:55.208Z,84.32
2022-09-27T18:40:44.528Z,66.10
2022-09-27T18:43:07.977Z,149.85
2022-09-27T18:45:34.240Z,162.43
2022-09-27T18:48:00.494Z,111.50
2022-09-27T18:50:26.743Z,66.95
2022-09-27T18:52:52.986Z,65.18
2022-09-27T18:55:22.149Z,88.20
2022-09-27T18:57:51.465Z,109.18
2022-09-27T19:00:17.934Z,111.20
2022-09-27T19:02:44.480Z,72.75
2022-09-27T19:05:10.730Z,65.15
2022-09-27T19:07:36.987Z,56.75
2022-09-27T19:10:04.958Z,58.30
2022-09-27T19:12:31.212Z,62.67
2022-09-27T19:14:57.472Z,56.78
2022-09-27T19:17:23.719Z,82.03
2022-09-27T19:19:50.738Z,87.43
2022-09-27T19:22:17.000Z,97.20
2022-09-27T19:24:43.253Z,104.53
2022-09-27T19:27:09.502Z,65.60
2022-09-27T19:29:36.788Z,55.63
2022-09-27T19:32:03.052Z,63.97
2022-09-27T19:34:29.320Z,57.15
2022-09-27T19:36:55.599Z,61.05
2022-09-27T19:39:21.852Z,59.88
2022-09-27T19:41:48.324Z,64.03
2022-09-27T19:44:14.746Z,57.97
2022-09-27T19:46:41.105Z,56.63
2022-09-27T19:49:07.563Z,57.63
2022-09-27T19:51:33.977Z,58.80
2022-09-27T19:54:00.231Z,55.08
2022-09-27T19:56:26.549Z,55.50
2022-09-27T19:58:53.159Z,52.13
2022-09-27T20:01:20.134Z,57.13
2022-09-27T20:03:46.450Z,52.90
2022-09-27T20:06:12.764Z,54.88
2022-09-27T20:08:39.006Z,59.67
2022-09-27T20:11:06.618Z,58.42
2022-09-27T20:13:33.050Z,61.83
2022-09-27T20:15:59.357Z,72.18
2022-09-27T20:18:25.619Z,115.10
2022-09-27T20:20:51.867Z,160.43
2022-09-27T20:23:19.983Z,141.73
2022-09-27T20:28:12.631Z,99.78
2022-09-27T20:30:39.092Z,132.60
2022-09-27T20:33:23.923Z,106.75
2022-09-27T20:35:50.276Z,85.93
2022-09-27T20:38:16.514Z,76.85
2022-09-27T20:40:42.839Z,66.90
2022-09-27T20:43:09.109Z,73.03
2022-09-27T20:45:35.360Z,69.65
2022-09-27T20:48:01.618Z,62.90
2022-09-27T20:50:27.879Z,67.45
2022-09-27T20:52:54.132Z,70.82
2022-09-27T20:55:20.370Z,73.85
2022-09-27T20:57:57.354Z,78.15
2022-09-27T21:00:24.185Z,90.95
2022-09-27T21:02:50.430Z,94.50
2022-09-27T21:05:16.702Z,113.35
2022-09-27T21:07:42.965Z,100.65
2022-09-27T21:10:09.228Z,73.25
2022-09-27T21:12:35.524Z,64.05
2022-09-27T21:15:01.767Z,64.03
2022-09-27T21:17:28.011Z,74.57
2022-09-27T21:19:54.266Z,89.28
2022-09-27T21:22:20.805Z,103.55
2022-09-27T21:24:47.060Z,81.78
2022-09-27T21:27:13.308Z,65.50
2022-09-27T21:29:39.568Z,65.18
2022-09-27T21:32:05.825Z,65.72
2022-09-27T21:34:32.086Z,63.80
2022-09-27T21:36:58.532Z,73.18
2022-09-27T21:39:24.923Z,68.65
2022-09-27T21:41:51.176Z,64.03
2022-09-27T21:44:18.432Z,62.13
2022-09-27T21:46:44.722Z,63.00
2022-09-27T21:49:11.376Z,67.57
2022-09-27T21:51:37.666Z,61.25
2022-09-27T21:54:03.905Z,58.15
2022-09-27T21:56:30.360Z,63.05
2022-09-27T21:58:56.643Z,72.85
2022-09-27T22:01:22.968Z,59.10
2022-09-27T22:03:49.264Z,60.67
2022-09-27T22:06:15.514Z,59.78
2022-09-27T22:08:41.759Z,57.08
2022-09-27T22:11:08.022Z,55.40
2022-09-27T22:13:34.266Z,50.70
2022-09-27T22:16:00.577Z,55.95
2022-09-27T22:18:26.971Z,52.47
2022-09-27T22:20:53.224Z,54.92
2022-09-27T22:23:19.475Z,51.40
2022-09-27T22:25:45.966Z,52.97
2022-09-27T22:28:12.215Z,48.97
2022-09-27T22:30:38.496Z,49.75
2022-09-27T22:33:04.747Z,51.72
2022-09-27T22:35:31.174Z,55.30
2022-09-27T22:37:57.426Z,54.75
2022-09-27T22:40:23.790Z,50.47
2022-09-27T22:42:51.280Z,50.45
2022-09-27T22:45:18.318Z,52.53
2022-09-27T22:47:44.562Z,53.25
2022-09-27T22:50:10.840Z,54.78
2022-09-27T22:52:37.363Z,57.78
2022-09-27T22:55:03.621Z,58.70
2022-09-27T22:57:29.885Z,62.20
2022-09-27T22:59:56.158Z,76.90
2022-09-27T23:02:22.433Z,60.92
2022-09-27T23:04:48.926Z,56.55
2022-09-27T23:07:15.174Z,58.70
2022-09-27T23:09:41.436Z,64.13
2022-09-27T23:12:07.760Z,60.13
2022-09-27T23:14:34.014Z,62.17
2022-09-27T23:17:01.466Z,68.72
2022-09-27T23:19:27.726Z,73.13
2022-09-27T23:21:54.082Z,80.50
2022-09-27T23:24:20.641Z,77.97
2022-09-27T23:27:06.886Z,80.35
2022-09-27T23:29:33.150Z,76.75
2022-09-27T23:31:59.655Z,72.55
2022-09-27T23:34:25.924Z,74.10
2022-09-27T23:36:52.533Z,76.05
2022-09-27T23:39:18.804Z,79.80
2022-09-27T23:41:45.056Z,80.90
2022-09-27T23:44:13.192Z,77.05
2022-09-27T23:49:07.548Z,70.20
2022-09-27T23:51:33.793Z,70.82
2022-09-27T23:54:00.298Z,65.18
2022-09-27T23:56:26.653Z,56.72
2022-09-27T23:58:52.909Z,55.58
